sensor_id;sensor_type;location;lat;lon;timestamp;pressure;altitude;pressure_sealevel;temperature;humidity
27210;BME280;14721;42.668;23.386;2022-09-17T00:00:16;94443.91;;;18.15;100.00
27210;BME280;14721;42.668;23.386;2022-09-17T00:02:42;94449.16;;;18.17;100.00
27210;BME280;14721;42.668;23.386;2022-09-17T00:05:10;94457.75;;;18.20;100.00
27210;BME280;14721;42.668;23.386;2022-09-17T00:07:36;94451.00;;;18.16;100.00
27210;BME280;14721;42.668;23.386;2022-09-17T00:10:04;94441.88;;;18.17;100.00
27210;BME280;14721;42.668;23.386;2022-09-17T00:12:34;94457.84;;;18.27;100.00
27210;BME280;14721;42.668;23.386;2022-09-17T00:15:00;94442.66;;;18.26;100.00
27210;BME280;14721;42.668;23.386;2022-09-17T00:17:26;94436.66;;;18.16;100.00
27210;BME280;14721;42.668;23.386;2022-09-17T00:19:51;94437.84;;;18.13;100.00
27210;BME280;14721;42.668;23.386;2022-09-17T00:22:17;94421.22;;;18.24;100.00
27210;BME280;14721;42.668;23.386;2022-09-17T00:24:43;94445.34;;;18.26;100.00
27210;BME280;14721;42.668;23.386;2022-09-17T00:27:10;94433.50;;;18.27;100.00
27210;BME280;14721;42.668;23.386;2022-09-17T00:29:36;94429.25;;;18.32;100.00
27210;BME280;14721;42.668;23.386;2022-09-17T00:32:02;94429.91;;;18.34;100.00
27210;BME280;14721;42.668;23.386;2022-09-17T00:34:27;94422.81;;;18.33;100.00
27210;BME280;14721;42.668;23.386;2022-09-17T00:36:53;94419.44;;;18.31;100.00
27210;BME280;14721;42.668;23.386;2022-09-17T00:39:20;94435.50;;;18.33;100.00
27210;BME280;14721;42.668;23.386;2022-09-17T00:41:46;94428.97;;;18.27;100.00
27210;BME280;14721;42.668;23.386;2022-09-17T00:44:38;94429.91;;;18.34;100.00
27210;BME280;14721;42.668;23.386;2022-09-17T00:47:11;94447.56;;;18.22;100.00
27210;BME280;14721;42.668;23.386;2022-09-17T00:49:38;94447.13;;;18.19;100.00
27210;BME280;14721;42.668;23.386;2022-09-17T00:52:07;94439.00;;;18.19;100.00
27210;BME280;14721;42.668;23.386;2022-09-17T00:54:41;94448.28;;;18.16;100.00
27210;BME280;14721;42.668;23.386;2022-09-17T00:57:09;94436.88;;;18.06;100.00
27210;BME280;14721;42.668;23.386;2022-09-17T00:59:36;94446.44;;;17.94;100.00
27210;BME280;14721;42.668;23.386;2022-09-17T01:02:02;94456.25;;;17.95;100.00
27210;BME280;14721;42.668;23.386;2022-09-17T01:04:28;94473.53;;;17.86;100.00
27210;BME280;14721;42.668;23.386;2022-09-17T01:23:19;94391.28;;;17.58;100.00
27210;BME280;14721;42.668;23.386;2022-09-17T01:28:31;94411.72;;;17.61;100.00
27210;BME280;14721;42.668;23.386;2022-09-17T01:31:14;94449.22;;;17.56;100.00
27210;BME280;14721;42.668;23.386;2022-09-17T01:41:49;94425.28;;;17.75;100.00
27210;BME280;14721;42.668;23.386;2022-09-17T01:47:33;94412.03;;;17.88;100.00
27210;BME280;14721;42.668;23.386;2022-09-17T01:50:10;94423.84;;;17.87;100.00
27210;BME280;14721;42.668;23.386;2022-09-17T01:52:39;94413.38;;;17.92;100.00
27210;BME280;14721;42.668;23.386;2022-09-17T01:55:12;94369.94;;;17.94;100.00
27210;BME280;14721;42.668;23.386;2022-09-17T02:00:13;94409.44;;;17.95;100.00
27210;BME280;14721;42.668;23.386;2022-09-17T02:05:48;94418.41;;;17.95;100.00
27210;BME280;14721;42.668;23.386;2022-09-17T02:08:19;94414.91;;;17.87;100.00
27210;BME280;14721;42.668;23.386;2022-09-17T02:10:50;94400.66;;;17.93;100.00
27210;BME280;14721;42.668;23.386;2022-09-17T02:15:56;94343.81;;;17.64;100.00
27210;BME280;14721;42.668;23.386;2022-09-17T02:18:35;94348.38;;;17.86;100.00
27210;BME280;14721;42.668;23.386;2022-09-17T02:21:11;94355.94;;;17.90;100.00
27210;BME280;14721;42.668;23.386;2022-09-17T02:24:04;94311.66;;;17.91;100.00
27210;BME280;14721;42.668;23.386;2022-09-17T02:26:34;94286.91;;;17.65;100.00
27210;BME280;14721;42.668;23.386;2022-09-17T02:29:15;94333.28;;;17.69;100.00
27210;BME280;14721;42.668;23.386;2022-09-17T02:31:43;94297.53;;;17.67;100.00
27210;BME280;14721;42.668;23.386;2022-09-17T02:34:09;94273.09;;;17.60;100.00
27210;BME280;14721;42.668;23.386;2022-09-17T02:36:35;94266.03;;;17.59;100.00
27210;BME280;14721;42.668;23.386;2022-09-17T02:39:03;94290.06;;;17.69;100.00
27210;BME280;14721;42.668;23.386;2022-09-17T02:41:50;94308.94;;;17.54;100.00
27210;BME280;14721;42.668;23.386;2022-09-17T02:55:12;94318.47;;;17.65;100.00
27210;BME280;14721;42.668;23.386;2022-09-17T02:58:04;94322.50;;;17.69;100.00
27210;BME280;14721;42.668;23.386;2022-09-17T03:00:31;94318.25;;;17.74;100.00
27210;BME280;14721;42.668;23.386;2022-09-17T03:02:58;94302.59;;;17.70;100.00
27210;BME280;14721;42.668;23.386;2022-09-17T03:05:26;94299.06;;;17.84;100.00
27210;BME280;14721;42.668;23.386;2022-09-17T03:07:58;94269.88;;;17.79;100.00
27210;BME280;14721;42.668;23.386;2022-09-17T03:10:24;94288.75;;;17.87;100.00
27210;BME280;14721;42.668;23.386;2022-09-17T03:12:53;94291.38;;;17.95;100.00
27210;BME280;14721;42.668;23.386;2022-09-17T03:15:19;94278.25;;;17.92;100.00
27210;BME280;14721;42.668;23.386;2022-09-17T03:17:44;94286.44;;;17.99;100.00
27210;BME280;14721;42.668;23.386;2022-09-17T03:20:10;94295.66;;;18.04;100.00
27210;BME280;14721;42.668;23.386;2022-09-17T03:22:35;94292.69;;;17.99;100.00
27210;BME280;14721;42.668;23.386;2022-09-17T03:25:01;94288.59;;;18.03;100.00
27210;BME280;14721;42.668;23.386;2022-09-17T03:27:27;94268.00;;;18.02;100.00
27210;BME280;14721;42.668;23.386;2022-09-17T03:29:53;94285.03;;;18.03;100.00
27210;BME280;14721;42.668;23.386;2022-09-17T03:32:20;94296.59;;;17.97;100.00
27210;BME280;14721;42.668;23.386;2022-09-17T03:34:46;94280.09;;;18.06;100.00
27210;BME280;14721;42.668;23.386;2022-09-17T03:37:12;94258.84;;;18.03;100.00
27210;BME280;14721;42.668;23.386;2022-09-17T03:39:38;94275.44;;;18.00;100.00
27210;BME280;14721;42.668;23.386;2022-09-17T03:42:05;94263.53;;;18.09;100.00
27210;BME280;14721;42.668;23.386;2022-09-17T03:44:30;94263.63;;;18.16;100.00
27210;BME280;14721;42.668;23.386;2022-09-17T03:46:56;94263.81;;;18.14;100.00
27210;BME280;14721;42.668;23.386;2022-09-17T03:49:22;94252.91;;;18.22;100.00
27210;BME280;14721;42.668;23.386;2022-09-17T03:51:48;94241.63;;;18.33;99.78
27210;BME280;14721;42.668;23.386;2022-09-17T03:54:14;94255.09;;;18.41;98.48
27210;BME280;14721;42.668;23.386;2022-09-17T03:56:40;94250.25;;;18.37;98.67
27210;BME280;14721;42.668;23.386;2022-09-17T03:59:05;94251.94;;;18.38;99.07
27210;BME280;14721;42.668;23.386;2022-09-17T04:01:31;94267.03;;;18.47;99.13
27210;BME280;14721;42.668;23.386;2022-09-17T04:03:57;94258.44;;;18.43;99.08
27210;BME280;14721;42.668;23.386;2022-09-17T04:06:25;94258.72;;;18.48;99.35
27210;BME280;14721;42.668;23.386;2022-09-17T04:08:51;94283.19;;;18.55;99.45
27210;BME280;14721;42.668;23.386;2022-09-17T04:11:20;94279.16;;;18.51;99.34
27210;BME280;14721;42.668;23.386;2022-09-17T04:13:46;94282.22;;;18.48;99.11
27210;BME280;14721;42.668;23.386;2022-09-17T04:16:11;94293.16;;;18.54;99.38
27210;BME280;14721;42.668;23.386;2022-09-17T04:18:37;94282.91;;;18.50;99.44
27210;BME280;14721;42.668;23.386;2022-09-17T04:21:03;94293.91;;;18.48;99.55
27210;BME280;14721;42.668;23.386;2022-09-17T04:23:29;94320.00;;;18.41;100.00
27210;BME280;14721;42.668;23.386;2022-09-17T04:25:55;94348.94;;;18.33;100.00
27210;BME280;14721;42.668;23.386;2022-09-17T04:28:20;94356.63;;;18.29;100.00
27210;BME280;14721;42.668;23.386;2022-09-17T04:30:47;94362.28;;;18.20;100.00
27210;BME280;14721;42.668;23.386;2022-09-17T04:33:13;94364.97;;;18.20;100.00
27210;BME280;14721;42.668;23.386;2022-09-17T04:35:39;94382.59;;;18.16;100.00
27210;BME280;14721;42.668;23.386;2022-09-17T04:38:04;94374.91;;;18.05;100.00
27210;BME280;14721;42.668;23.386;2022-09-17T04:40:30;94382.41;;;17.95;100.00
27210;BME280;14721;42.668;23.386;2022-09-17T04:42:57;94399.50;;;17.95;100.00
27210;BME280;14721;42.668;23.386;2022-09-17T04:45:23;94408.59;;;17.94;100.00
27210;BME280;14721;42.668;23.386;2022-09-17T04:47:50;94408.97;;;17.91;100.00
27210;BME280;14721;42.668;23.386;2022-09-17T04:50:20;94422.47;;;17.91;100.00
27210;BME280;14721;42.668;23.386;2022-09-17T04:52:46;94434.97;;;17.92;100.00
27210;BME280;14721;42.668;23.386;2022-09-17T04:55:13;94417.31;;;17.82;100.00
27210;BME280;14721;42.668;23.386;2022-09-17T04:57:51;94442.34;;;17.98;100.00
27210;BME280;14721;42.668;23.386;2022-09-17T05:00:18;94446.25;;;17.96;100.00
27210;BME280;14721;42.668;23.386;2022-09-17T05:02:48;94449.31;;;17.93;100.00
27210;BME280;14721;42.668;23.386;2022-09-17T05:05:16;94438.69;;;17.91;100.00
27210;BME280;14721;42.668;23.386;2022-09-17T05:07:42;94427.94;;;17.83;100.00
27210;BME280;14721;42.668;23.386;2022-09-17T05:10:09;94449.63;;;17.98;100.00
27210;BME280;14721;42.668;23.386;2022-09-17T05:12:36;94431.97;;;17.87;100.00
27210;BME280;14721;42.668;23.386;2022-09-17T05:15:01;94441.38;;;17.91;100.00
27210;BME280;14721;42.668;23.386;2022-09-17T05:17:27;94429.56;;;17.92;100.00
27210;BME280;14721;42.668;23.386;2022-09-17T05:19:53;94427.84;;;17.99;100.00
27210;BME280;14721;42.668;23.386;2022-09-17T05:22:20;94423.38;;;18.06;100.00
27210;BME280;14721;42.668;23.386;2022-09-17T05:24:46;94357.88;;;17.82;100.00
27210;BME280;14721;42.668;23.386;2022-09-17T05:27:12;94399.03;;;18.06;100.00
27210;BME280;14721;42.668;23.386;2022-09-17T05:29:38;94395.66;;;18.04;100.00
27210;BME280;14721;42.668;23.386;2022-09-17T05:32:05;94380.22;;;17.76;100.00
27210;BME280;14721;42.668;23.386;2022-09-17T05:34:31;94393.41;;;17.71;100.00
27210;BME280;14721;42.668;23.386;2022-09-17T05:36:58;94402.56;;;17.62;100.00
27210;BME280;14721;42.668;23.386;2022-09-17T05:39:25;94413.34;;;17.70;100.00
27210;BME280;14721;42.668;23.386;2022-09-17T05:41:51;94418.31;;;17.81;100.00
27210;BME280;14721;42.668;23.386;2022-09-17T05:44:18;94431.28;;;17.85;100.00
27210;BME280;14721;42.668;23.386;2022-09-17T05:46:45;94425.00;;;17.93;100.00
27210;BME280;14721;42.668;23.386;2022-09-17T05:49:12;94421.03;;;18.03;100.00
27210;BME280;14721;42.668;23.386;2022-09-17T05:51:37;94426.56;;;18.10;100.00
27210;BME280;14721;42.668;23.386;2022-09-17T05:54:03;94435.13;;;18.36;100.00
27210;BME280;14721;42.668;23.386;2022-09-17T05:56:28;94433.69;;;18.48;100.00
27210;BME280;14721;42.668;23.386;2022-09-17T05:58:55;94422.94;;;18.62;100.00
27210;BME280;14721;42.668;23.386;2022-09-17T06:01:22;94420.47;;;18.53;100.00
27210;BME280;14721;42.668;23.386;2022-09-17T06:03:48;94421.59;;;18.58;100.00
27210;BME280;14721;42.668;23.386;2022-09-17T06:06:13;94417.16;;;18.65;100.00
27210;BME280;14721;42.668;23.386;2022-09-17T06:08:41;94415.81;;;18.61;100.00
27210;BME280;14721;42.668;23.386;2022-09-17T06:11:07;94420.69;;;18.66;100.00
27210;BME280;14721;42.668;23.386;2022-09-17T06:13:34;94411.50;;;18.52;100.00
27210;BME280;14721;42.668;23.386;2022-09-17T06:16:01;94428.22;;;18.56;100.00
27210;BME280;14721;42.668;23.386;2022-09-17T06:18:30;94425.78;;;18.46;100.00
27210;BME280;14721;42.668;23.386;2022-09-17T06:20:57;94440.69;;;18.42;100.00
27210;BME280;14721;42.668;23.386;2022-09-17T06:23:23;94481.47;;;18.55;100.00
27210;BME280;14721;42.668;23.386;2022-09-17T06:25:52;94487.63;;;18.49;100.00
27210;BME280;14721;42.668;23.386;2022-09-17T06:28:18;94493.41;;;18.46;100.00
27210;BME280;14721;42.668;23.386;2022-09-17T06:30:44;94493.81;;;18.35;100.00
27210;BME280;14721;42.668;23.386;2022-09-17T06:33:10;94492.94;;;18.43;100.00
27210;BME280;14721;42.668;23.386;2022-09-17T06:35:35;94492.56;;;18.46;100.00
27210;BME280;14721;42.668;23.386;2022-09-17T06:38:03;94512.03;;;18.41;100.00
27210;BME280;14721;42.668;23.386;2022-09-17T06:40:29;94518.78;;;18.45;100.00
27210;BME280;14721;42.668;23.386;2022-09-17T06:43:00;94515.63;;;18.34;100.00
27210;BME280;14721;42.668;23.386;2022-09-17T06:45:26;94511.88;;;18.43;100.00
27210;BME280;14721;42.668;23.386;2022-09-17T06:47:52;94499.72;;;18.39;100.00
27210;BME280;14721;42.668;23.386;2022-09-17T06:50:20;94483.06;;;18.50;100.00
27210;BME280;14721;42.668;23.386;2022-09-17T06:52:52;94466.28;;;18.54;100.00
27210;BME280;14721;42.668;23.386;2022-09-17T06:55:18;94467.88;;;18.49;100.00
27210;BME280;14721;42.668;23.386;2022-09-17T06:57:44;94478.41;;;18.58;100.00
27210;BME280;14721;42.668;23.386;2022-09-17T07:00:14;94464.34;;;18.63;100.00
27210;BME280;14721;42.668;23.386;2022-09-17T07:02:53;94457.19;;;18.70;100.00
27210;BME280;14721;42.668;23.386;2022-09-17T07:05:18;94456.16;;;18.71;100.00
27210;BME280;14721;42.668;23.386;2022-09-17T07:07:44;94447.69;;;18.89;100.00
27210;BME280;14721;42.668;23.386;2022-09-17T07:10:10;94434.94;;;19.12;100.00
27210;BME280;14721;42.668;23.386;2022-09-17T07:12:39;94428.66;;;19.55;100.00
27210;BME280;14721;42.668;23.386;2022-09-17T07:15:06;94408.03;;;19.89;100.00
27210;BME280;14721;42.668;23.386;2022-09-17T07:17:34;94407.22;;;19.74;100.00
27210;BME280;14721;42.668;23.386;2022-09-17T07:20:00;94397.66;;;19.93;100.00
27210;BME280;14721;42.668;23.386;2022-09-17T07:22:26;94381.72;;;21.02;100.00
27210;BME280;14721;42.668;23.386;2022-09-17T07:24:51;94380.44;;;22.59;91.02
27210;BME280;14721;42.668;23.386;2022-09-17T07:27:17;94377.19;;;23.46;82.44
27210;BME280;14721;42.668;23.386;2022-09-17T07:29:42;94390.81;;;23.59;79.80
27210;BME280;14721;42.668;23.386;2022-09-17T07:32:08;94390.03;;;23.39;78.90
27210;BME280;14721;42.668;23.386;2022-09-17T07:34:34;94384.53;;;24.10;73.83
27210;BME280;14721;42.668;23.386;2022-09-17T07:37:00;94390.78;;;24.54;73.06
27210;BME280;14721;42.668;23.386;2022-09-17T07:39:25;94381.72;;;25.09;71.00
27210;BME280;14721;42.668;23.386;2022-09-17T07:41:50;94387.13;;;25.76;66.40
27210;BME280;14721;42.668;23.386;2022-09-17T07:44:16;94391.97;;;26.29;66.55
27210;BME280;14721;42.668;23.386;2022-09-17T07:46:42;94372.00;;;26.40;61.31
27210;BME280;14721;42.668;23.386;2022-09-17T07:49:08;94363.19;;;26.08;63.00
27210;BME280;14721;42.668;23.386;2022-09-17T07:51:33;94380.28;;;25.86;64.16
27210;BME280;14721;42.668;23.386;2022-09-17T07:53:59;94391.88;;;26.06;63.85
27210;BME280;14721;42.668;23.386;2022-09-17T07:56:26;94367.69;;;25.48;64.86
27210;BME280;14721;42.668;23.386;2022-09-17T07:58:52;94363.97;;;25.18;66.59
27210;BME280;14721;42.668;23.386;2022-09-17T08:01:18;94340.00;;;25.20;65.09
27210;BME280;14721;42.668;23.386;2022-09-17T08:03:50;94345.47;;;24.96;65.74
27210;BME280;14721;42.668;23.386;2022-09-17T08:06:18;94365.66;;;24.70;66.72
27210;BME280;14721;42.668;23.386;2022-09-17T08:08:44;94362.34;;;24.31;69.08
27210;BME280;14721;42.668;23.386;2022-09-17T08:11:20;94369.31;;;24.27;69.35
27210;BME280;14721;42.668;23.386;2022-09-17T08:13:49;94361.00;;;24.15;69.84
27210;BME280;14721;42.668;23.386;2022-09-17T08:16:14;94352.69;;;24.35;70.03
27210;BME280;14721;42.668;23.386;2022-09-17T08:18:44;94325.16;;;24.36;68.27
27210;BME280;14721;42.668;23.386;2022-09-17T08:21:11;94344.88;;;24.69;67.91
27210;BME280;14721;42.668;23.386;2022-09-17T08:23:38;94345.44;;;24.78;66.85
27210;BME280;14721;42.668;23.386;2022-09-17T08:26:06;94331.38;;;24.99;67.62
27210;BME280;14721;42.668;23.386;2022-09-17T08:28:34;94331.00;;;25.38;65.68
27210;BME280;14721;42.668;23.386;2022-09-17T08:31:05;94339.81;;;25.40;64.63
27210;BME280;14721;42.668;23.386;2022-09-17T08:33:37;94336.09;;;25.10;64.88
27210;BME280;14721;42.668;23.386;2022-09-17T08:36:05;94338.41;;;25.31;64.52
27210;BME280;14721;42.668;23.386;2022-09-17T08:38:33;94349.97;;;25.51;64.82
27210;BME280;14721;42.668;23.386;2022-09-17T08:41:41;94338.13;;;25.57;63.38
27210;BME280;14721;42.668;23.386;2022-09-17T08:46:48;94342.06;;;25.00;62.78
27210;BME280;14721;42.668;23.386;2022-09-17T09:04:27;94331.97;;;23.83;66.84
27210;BME280;14721;42.668;23.386;2022-09-17T09:07:20;94328.66;;;23.68;67.55
27210;BME280;14721;42.668;23.386;2022-09-17T09:09:53;94339.16;;;23.64;69.73
27210;BME280;14721;42.668;23.386;2022-09-17T09:12:27;94342.97;;;23.57;69.40
27210;BME280;14721;42.668;23.386;2022-09-17T09:14:59;94353.78;;;23.32;70.99
27210;BME280;14721;42.668;23.386;2022-09-17T09:17:32;94363.69;;;22.88;75.23
27210;BME280;14721;42.668;23.386;2022-09-17T09:20:03;94361.56;;;22.44;79.27
27210;BME280;14721;42.668;23.386;2022-09-17T09:22:47;94360.22;;;22.01;81.39
27210;BME280;14721;42.668;23.386;2022-09-17T09:25:18;94373.47;;;21.63;82.88
27210;BME280;14721;42.668;23.386;2022-09-17T09:28:05;94375.78;;;21.19;84.57
27210;BME280;14721;42.668;23.386;2022-09-17T09:30:49;94384.56;;;21.21;87.43
27210;BME280;14721;42.668;23.386;2022-09-17T09:33:28;94410.31;;;20.98;90.94
27210;BME280;14721;42.668;23.386;2022-09-17T09:35:58;94369.63;;;20.77;94.07
27210;BME280;14721;42.668;23.386;2022-09-17T09:38:35;94408.91;;;20.81;92.77
27210;BME280;14721;42.668;23.386;2022-09-17T09:41:13;94407.75;;;20.69;93.81
27210;BME280;14721;42.668;23.386;2022-09-17T09:43:50;94418.53;;;20.56;93.25
27210;BME280;14721;42.668;23.386;2022-09-17T09:46:45;94434.88;;;20.41;94.48
27210;BME280;14721;42.668;23.386;2022-09-17T09:52:31;94420.75;;;20.45;99.44
27210;BME280;14721;42.668;23.386;2022-09-17T09:57:43;94445.81;;;20.12;100.00
27210;BME280;14721;42.668;23.386;2022-09-17T10:00:24;94441.41;;;19.90;100.00
27210;BME280;14721;42.668;23.386;2022-09-17T10:02:56;94452.88;;;19.71;100.00
27210;BME280;14721;42.668;23.386;2022-09-17T10:05:24;94436.41;;;19.58;100.00
27210;BME280;14721;42.668;23.386;2022-09-17T10:07:49;94408.50;;;19.14;100.00
27210;BME280;14721;42.668;23.386;2022-09-17T10:10:15;94408.97;;;19.03;100.00
27210;BME280;14721;42.668;23.386;2022-09-17T10:12:41;94379.66;;;18.92;100.00
27210;BME280;14721;42.668;23.386;2022-09-17T10:15:27;94364.72;;;18.81;100.00
27210;BME280;14721;42.668;23.386;2022-09-17T10:18:18;94348.59;;;18.73;100.00
27210;BME280;14721;42.668;23.386;2022-09-17T10:20:58;94329.63;;;18.58;100.00
27210;BME280;14721;42.668;23.386;2022-09-17T10:23:28;94330.84;;;18.56;100.00
27210;BME280;14721;42.668;23.386;2022-09-17T10:25:56;94321.25;;;18.53;100.00
27210;BME280;14721;42.668;23.386;2022-09-17T10:28:43;94328.31;;;18.40;100.00
27210;BME280;14721;42.668;23.386;2022-09-17T10:31:15;94331.31;;;18.22;100.00
27210;BME280;14721;42.668;23.386;2022-09-17T10:33:51;94321.34;;;18.23;100.00
27210;BME280;14721;42.668;23.386;2022-09-17T10:36:35;94330.13;;;18.25;100.00
27210;BME280;14721;42.668;23.386;2022-09-17T10:44:57;94319.00;;;18.20;100.00
27210;BME280;14721;42.668;23.386;2022-09-17T10:47:29;94308.94;;;18.14;100.00
27210;BME280;14721;42.668;23.386;2022-09-17T10:50:04;94289.09;;;18.21;100.00
27210;BME280;14721;42.668;23.386;2022-09-17T10:52:37;94258.69;;;18.19;100.00
27210;BME280;14721;42.668;23.386;2022-09-17T10:55:28;94273.22;;;18.18;100.00
27210;BME280;14721;42.668;23.386;2022-09-17T11:01:14;94241.00;;;18.60;100.00
27210;BME280;14721;42.668;23.386;2022-09-17T11:09:28;94247.72;;;19.50;100.00
27210;BME280;14721;42.668;23.386;2022-09-17T11:17:52;94286.00;;;20.59;100.00
27210;BME280;14721;42.668;23.386;2022-09-17T11:34:24;94308.78;;;21.93;92.52
27210;BME280;14721;42.668;23.386;2022-09-17T11:43:11;94307.97;;;21.45;94.88
27210;BME280;14721;42.668;23.386;2022-09-17T11:48:38;94293.69;;;21.30;95.02
27210;BME280;14721;42.668;23.386;2022-09-17T11:51:26;94293.09;;;21.35;95.38
27210;BME280;14721;42.668;23.386;2022-09-17T11:53:58;94298.03;;;21.12;95.82
27210;BME280;14721;42.668;23.386;2022-09-17T11:56:33;94284.75;;;20.96;97.51
27210;BME280;14721;42.668;23.386;2022-09-17T12:01:48;94279.78;;;20.72;98.83
27210;BME280;14721;42.668;23.386;2022-09-17T12:04:45;94276.47;;;20.42;97.76
27210;BME280;14721;42.668;23.386;2022-09-17T12:09:53;94265.38;;;19.88;100.00
27210;BME280;14721;42.668;23.386;2022-09-17T12:12:23;94272.88;;;19.86;100.00
27210;BME280;14721;42.668;23.386;2022-09-17T12:15:13;94259.91;;;19.82;100.00
27210;BME280;14721;42.668;23.386;2022-09-17T12:20:54;94280.09;;;19.79;100.00
27210;BME280;14721;42.668;23.386;2022-09-17T12:23:33;94284.25;;;19.75;100.00
27210;BME280;14721;42.668;23.386;2022-09-17T12:29:05;94270.53;;;19.41;100.00
27210;BME280;14721;42.668;23.386;2022-09-17T12:31:59;94251.44;;;19.28;100.00
27210;BME280;14721;42.668;23.386;2022-09-17T12:37:25;94255.34;;;19.26;100.00
27210;BME280;14721;42.668;23.386;2022-09-17T12:51:12;94229.50;;;19.44;100.00
27210;BME280;14721;42.668;23.386;2022-09-17T12:56:45;94246.69;;;19.16;100.00
27210;BME280;14721;42.668;23.386;2022-09-17T12:59:16;94241.66;;;19.13;100.00
27210;BME280;14721;42.668;23.386;2022-09-17T13:23:05;94224.03;;;18.66;100.00
27210;BME280;14721;42.668;23.386;2022-09-17T13:25:31;94206.59;;;18.54;100.00
27210;BME280;14721;42.668;23.386;2022-09-17T13:28:07;94216.50;;;18.47;100.00
27210;BME280;14721;42.668;23.386;2022-09-17T13:30:58;94206.31;;;18.49;100.00
27210;BME280;14721;42.668;23.386;2022-09-17T13:39:00;94181.38;;;18.68;100.00
27210;BME280;14721;42.668;23.386;2022-09-17T13:41:29;94170.13;;;18.50;100.00
27210;BME280;14721;42.668;23.386;2022-09-17T13:43:57;94161.34;;;18.34;100.00
27210;BME280;14721;42.668;23.386;2022-09-17T13:46:27;94167.44;;;18.50;100.00
27210;BME280;14721;42.668;23.386;2022-09-17T13:48:59;94154.34;;;18.68;100.00
27210;BME280;14721;42.668;23.386;2022-09-17T13:53:55;94140.75;;;18.47;100.00
27210;BME280;14721;42.668;23.386;2022-09-17T13:56:32;94127.81;;;18.43;100.00
27210;BME280;14721;42.668;23.386;2022-09-17T13:59:17;94123.22;;;18.43;100.00
27210;BME280;14721;42.668;23.386;2022-09-17T14:17:58;94128.91;;;18.34;100.00
27210;BME280;14721;42.668;23.386;2022-09-17T14:20:24;94133.78;;;18.38;100.00
27210;BME280;14721;42.668;23.386;2022-09-17T14:22:59;94121.81;;;18.33;100.00
27210;BME280;14721;42.668;23.386;2022-09-17T14:25:46;94124.25;;;18.28;100.00
27210;BME280;14721;42.668;23.386;2022-09-17T14:30:42;94133.84;;;18.30;100.00
27210;BME280;14721;42.668;23.386;2022-09-17T14:33:17;94144.38;;;18.25;100.00
27210;BME280;14721;42.668;23.386;2022-09-17T14:35:44;94135.34;;;18.18;100.00
27210;BME280;14721;42.668;23.386;2022-09-17T14:41:02;94092.84;;;18.12;100.00
27210;BME280;14721;42.668;23.386;2022-09-17T14:43:40;94064.06;;;18.05;100.00
27210;BME280;14721;42.668;23.386;2022-09-17T14:46:18;94032.94;;;17.94;100.00
27210;BME280;14721;42.668;23.386;2022-09-17T14:48:44;94047.97;;;17.97;100.00
27210;BME280;14721;42.668;23.386;2022-09-17T14:51:28;94053.81;;;18.00;100.00
27210;BME280;14721;42.668;23.386;2022-09-17T14:54:25;94085.22;;;18.01;100.00
27210;BME280;14721;42.668;23.386;2022-09-17T14:56:59;94081.56;;;18.09;100.00
27210;BME280;14721;42.668;23.386;2022-09-17T15:02:28;94058.00;;;18.03;100.00
27210;BME280;14721;42.668;23.386;2022-09-17T15:04:55;94041.91;;;17.95;100.00
27210;BME280;14721;42.668;23.386;2022-09-17T15:07:22;94039.22;;;17.95;100.00
27210;BME280;14721;42.668;23.386;2022-09-17T15:09:48;94051.44;;;17.91;100.00
27210;BME280;14721;42.668;23.386;2022-09-17T15:12:23;94056.47;;;17.94;100.00
27210;BME280;14721;42.668;23.386;2022-09-17T15:14:54;94044.22;;;17.98;100.00
27210;BME280;14721;42.668;23.386;2022-09-17T15:17:21;94036.22;;;17.90;100.00
27210;BME280;14721;42.668;23.386;2022-09-17T15:19:55;94037.41;;;18.02;100.00
27210;BME280;14721;42.668;23.386;2022-09-17T15:22:22;94029.44;;;18.15;100.00
27210;BME280;14721;42.668;23.386;2022-09-17T15:25:03;94046.63;;;18.07;100.00
27210;BME280;14721;42.668;23.386;2022-09-17T15:32:23;94007.16;;;18.27;100.00
27210;BME280;14721;42.668;23.386;2022-09-17T15:37:56;94025.22;;;18.41;100.00
27210;BME280;14721;42.668;23.386;2022-09-17T15:43:12;94032.00;;;18.52;100.00
27210;BME280;14721;42.668;23.386;2022-09-17T15:45:45;94025.53;;;18.53;100.00
27210;BME280;14721;42.668;23.386;2022-09-17T15:50:50;94028.94;;;18.61;100.00
27210;BME280;14721;42.668;23.386;2022-09-17T15:53:22;94031.06;;;18.66;100.00
27210;BME280;14721;42.668;23.386;2022-09-17T16:01:52;94023.50;;;18.76;100.00
27210;BME280;14721;42.668;23.386;2022-09-17T16:04:25;94003.31;;;18.79;100.00
27210;BME280;14721;42.668;23.386;2022-09-17T16:12:15;93986.66;;;19.03;100.00
27210;BME280;14721;42.668;23.386;2022-09-17T16:14:43;93985.22;;;19.07;100.00
27210;BME280;14721;42.668;23.386;2022-09-17T16:17:27;93987.44;;;18.97;100.00
27210;BME280;14721;42.668;23.386;2022-09-17T16:20:26;93976.63;;;18.97;100.00
27210;BME280;14721;42.668;23.386;2022-09-17T16:22:52;93985.53;;;18.91;100.00
27210;BME280;14721;42.668;23.386;2022-09-17T16:25:24;93995.50;;;18.90;100.00
27210;BME280;14721;42.668;23.386;2022-09-17T16:28:19;93985.31;;;18.92;100.00
27210;BME280;14721;42.668;23.386;2022-09-17T16:31:03;93949.84;;;18.81;100.00
27210;BME280;14721;42.668;23.386;2022-09-17T16:33:38;93925.53;;;18.59;100.00
27210;BME280;14721;42.668;23.386;2022-09-17T16:36:59;93963.09;;;18.97;100.00
27210;BME280;14721;42.668;23.386;2022-09-17T16:39:25;93928.28;;;18.94;100.00
27210;BME280;14721;42.668;23.386;2022-09-17T16:41:54;93929.81;;;19.03;100.00
27210;BME280;14721;42.668;23.386;2022-09-17T16:44:20;93939.56;;;18.97;100.00